sensor_id;sensor_type;location;lat;lon;timestamp;temperature;humidity
782;DHT22;374;52.568;13.402;2023-05-07T00:00:39;8.50;99.90
782;DHT22;374;52.568;13.402;2023-05-07T00:03:05;9.20;99.90
782;DHT22;374;52.568;13.402;2023-05-07T00:05:31;9.20;99.90
782;DHT22;374;52.568;13.402;2023-05-07T00:07:57;9.20;99.90
782;DHT22;374;52.568;13.402;2023-05-07T00:10:23;9.20;99.90
782;DHT22;374;52.568;13.402;2023-05-07T00:12:48;9.20;99.90
782;DHT22;374;52.568;13.402;2023-05-07T00:15:13;9.20;99.90
782;DHT22;374;52.568;13.402;2023-05-07T00:17:39;9.10;99.90
782;DHT22;374;52.568;13.402;2023-05-07T00:20:05;9.10;99.90
782;DHT22;374;52.568;13.402;2023-05-07T00:22:31;9.20;99.90
782;DHT22;374;52.568;13.402;2023-05-07T00:24:57;9.20;99.90
782;DHT22;374;52.568;13.402;2023-05-07T00:27:23;9.10;99.90
782;DHT22;374;52.568;13.402;2023-05-07T00:29:48;9.00;99.90
782;DHT22;374;52.568;13.402;2023-05-07T00:32:14;9.10;99.90
782;DHT22;374;52.568;13.402;2023-05-07T00:34:40;9.20;99.90
782;DHT22;374;52.568;13.402;2023-05-07T00:37:05;9.20;99.90
782;DHT22;374;52.568;13.402;2023-05-07T00:39:33;9.20;99.90
782;DHT22;374;52.568;13.402;2023-05-07T00:42:06;9.10;99.90
782;DHT22;374;52.568;13.402;2023-05-07T00:44:31;9.00;99.90
782;DHT22;374;52.568;13.402;2023-05-07T00:46:57;9.10;99.90
782;DHT22;374;52.568;13.402;2023-05-07T00:49:35;9.20;99.90
782;DHT22;374;52.568;13.402;2023-05-07T00:52:06;9.10;99.90
782;DHT22;374;52.568;13.402;2023-05-07T00:54:33;9.10;99.90
782;DHT22;374;52.568;13.402;2023-05-07T00:56:59;9.10;99.90
782;DHT22;374;52.568;13.402;2023-05-07T00:59:25;9.10;99.90
782;DHT22;374;52.568;13.402;2023-05-07T01:01:51;9.10;99.90
782;DHT22;374;52.568;13.402;2023-05-07T01:04:17;9.00;99.90
782;DHT22;374;52.568;13.402;2023-05-07T01:06:44;9.10;99.90
782;DHT22;374;52.568;13.402;2023-05-07T01:09:10;9.10;99.90
782;DHT22;374;52.568;13.402;2023-05-07T01:14:02;9.10;99.90
782;DHT22;374;52.568;13.402;2023-05-07T01:16:27;9.00;99.90
782;DHT22;374;52.568;13.402;2023-05-07T01:18:53;9.10;99.90
782;DHT22;374;52.568;13.402;2023-05-07T01:21:24;9.10;99.90
782;DHT22;374;52.568;13.402;2023-05-07T01:23:52;9.00;99.90
782;DHT22;374;52.568;13.402;2023-05-07T01:26:17;9.10;99.90
782;DHT22;374;52.568;13.402;2023-05-07T01:28:45;9.10;99.90
782;DHT22;374;52.568;13.402;2023-05-07T01:31:12;9.00;99.90
782;DHT22;374;52.568;13.402;2023-05-07T01:33:40;9.10;99.90
782;DHT22;374;52.568;13.402;2023-05-07T01:36:07;9.00;99.90
782;DHT22;374;52.568;13.402;2023-05-07T01:38:35;9.10;99.90
782;DHT22;374;52.568;13.402;2023-05-07T01:41:01;9.10;99.90
782;DHT22;374;52.568;13.402;2023-05-07T01:43:28;9.10;99.90
782;DHT22;374;52.568;13.402;2023-05-07T01:45:55;9.00;99.90
782;DHT22;374;52.568;13.402;2023-05-07T01:48:21;9.10;99.90
782;DHT22;374;52.568;13.402;2023-05-07T01:50:47;9.10;99.90
782;DHT22;374;52.568;13.402;2023-05-07T01:53:13;8.60;99.90
782;DHT22;374;52.568;13.402;2023-05-07T01:55:38;9.00;99.90
782;DHT22;374;52.568;13.402;2023-05-07T01:58:05;9.10;99.90
782;DHT22;374;52.568;13.402;2023-05-07T02:00:31;9.00;99.90
782;DHT22;374;52.568;13.402;2023-05-07T02:02:57;8.90;99.90
782;DHT22;374;52.568;13.402;2023-05-07T02:05:25;9.10;99.90
782;DHT22;374;52.568;13.402;2023-05-07T02:10:17;9.00;99.90
782;DHT22;374;52.568;13.402;2023-05-07T02:15:09;9.10;99.90
782;DHT22;374;52.568;13.402;2023-05-07T02:20:02;9.10;99.90
782;DHT22;374;52.568;13.402;2023-05-07T02:22:29;9.10;99.90
782;DHT22;374;52.568;13.402;2023-05-07T02:24:54;8.90;99.90
782;DHT22;374;52.568;13.402;2023-05-07T02:29:46;9.10;99.90
782;DHT22;374;52.568;13.402;2023-05-07T02:39:29;9.10;99.90
782;DHT22;374;52.568;13.402;2023-05-07T02:41:54;8.80;99.90
782;DHT22;374;52.568;13.402;2023-05-07T02:44:20;9.00;99.90
782;DHT22;374;52.568;13.402;2023-05-07T02:46:45;9.00;99.90
782;DHT22;374;52.568;13.402;2023-05-07T02:49:11;9.00;99.90
782;DHT22;374;52.568;13.402;2023-05-07T02:51:36;9.10;99.90
782;DHT22;374;52.568;13.402;2023-05-07T02:54:02;9.00;99.90
782;DHT22;374;52.568;13.402;2023-05-07T02:56:36;9.10;99.90
782;DHT22;374;52.568;13.402;2023-05-07T02:59:04;9.00;99.90
782;DHT22;374;52.568;13.402;2023-05-07T03:03:56;9.00;99.90
782;DHT22;374;52.568;13.402;2023-05-07T03:08:47;9.10;99.90
782;DHT22;374;52.568;13.402;2023-05-07T03:13:39;9.10;99.90
782;DHT22;374;52.568;13.402;2023-05-07T03:16:05;11.70;99.90
782;DHT22;374;52.568;13.402;2023-05-07T03:20:57;9.10;99.90
782;DHT22;374;52.568;13.402;2023-05-07T03:25:48;9.10;99.90
782;DHT22;374;52.568;13.402;2023-05-07T03:28:14;8.90;99.90
782;DHT22;374;52.568;13.402;2023-05-07T03:33:06;9.00;99.90
782;DHT22;374;52.568;13.402;2023-05-07T03:37:57;9.10;99.90
782;DHT22;374;52.568;13.402;2023-05-07T03:40:23;8.50;99.90
782;DHT22;374;52.568;13.402;2023-05-07T03:42:48;9.10;99.90
782;DHT22;374;52.568;13.402;2023-05-07T03:45:14;9.10;99.90
782;DHT22;374;52.568;13.402;2023-05-07T03:47:39;9.10;99.90
782;DHT22;374;52.568;13.402;2023-05-07T03:50:05;9.10;99.90
782;DHT22;374;52.568;13.402;2023-05-07T03:52:31;9.10;99.90
782;DHT22;374;52.568;13.402;2023-05-07T03:54:56;9.00;99.90
782;DHT22;374;52.568;13.402;2023-05-07T03:57:21;9.00;99.90
782;DHT22;374;52.568;13.402;2023-05-07T03:59:47;9.00;99.90
782;DHT22;374;52.568;13.402;2023-05-07T04:02:12;9.00;99.90
782;DHT22;374;52.568;13.402;2023-05-07T04:04:38;9.00;99.90
782;DHT22;374;52.568;13.402;2023-05-07T04:07:03;9.00;99.90
782;DHT22;374;52.568;13.402;2023-05-07T04:09:29;9.00;99.90
782;DHT22;374;52.568;13.402;2023-05-07T04:11:55;8.90;99.90
782;DHT22;374;52.568;13.402;2023-05-07T04:14:21;9.00;99.90
782;DHT22;374;52.568;13.402;2023-05-07T04:16:49;8.90;99.90
782;DHT22;374;52.568;13.402;2023-05-07T04:19:16;9.00;99.90
782;DHT22;374;52.568;13.402;2023-05-07T04:21:47;10.40;99.90
782;DHT22;374;52.568;13.402;2023-05-07T04:24:15;9.00;99.90
782;DHT22;374;52.568;13.402;2023-05-07T04:26:44;8.90;99.90
782;DHT22;374;52.568;13.402;2023-05-07T04:31:36;9.00;99.90
782;DHT22;374;52.568;13.402;2023-05-07T04:36:28;9.00;99.90
782;DHT22;374;52.568;13.402;2023-05-07T04:38:54;8.20;99.90
782;DHT22;374;52.568;13.402;2023-05-07T04:41:22;8.80;99.90
782;DHT22;374;52.568;13.402;2023-05-07T04:43:48;9.00;99.90
782;DHT22;374;52.568;13.402;2023-05-07T04:58:27;9.00;99.90
782;DHT22;374;52.568;13.402;2023-05-07T05:03:21;9.00;99.90
782;DHT22;374;52.568;13.402;2023-05-07T05:05:52;8.80;99.90
782;DHT22;374;52.568;13.402;2023-05-07T05:10:46;9.00;99.90
782;DHT22;374;52.568;13.402;2023-05-07T05:13:14;7.90;99.90
782;DHT22;374;52.568;13.402;2023-05-07T05:20:31;9.00;99.90
782;DHT22;374;52.568;13.402;2023-05-07T05:30:24;9.40;99.90
782;DHT22;374;52.568;13.402;2023-05-07T05:33:10;9.10;99.90
782;DHT22;374;52.568;13.402;2023-05-07T05:38:02;9.10;99.90
782;DHT22;374;52.568;13.402;2023-05-07T05:40:30;10.20;99.90
782;DHT22;374;52.568;13.402;2023-05-07T05:42:55;9.10;99.90
782;DHT22;374;52.568;13.402;2023-05-07T05:45:21;8.60;99.90
782;DHT22;374;52.568;13.402;2023-05-07T05:47:49;9.20;99.90
782;DHT22;374;52.568;13.402;2023-05-07T05:55:07;9.20;99.90
782;DHT22;374;52.568;13.402;2023-05-07T05:57:56;9.30;99.90
782;DHT22;374;52.568;13.402;2023-05-07T06:00:33;9.80;99.90
782;DHT22;374;52.568;13.402;2023-05-07T06:02:58;9.90;99.90
782;DHT22;374;52.568;13.402;2023-05-07T06:07:50;9.40;99.90
782;DHT22;374;52.568;13.402;2023-05-07T06:10:15;11.10;99.90
782;DHT22;374;52.568;13.402;2023-05-07T06:15:07;9.50;99.90
782;DHT22;374;52.568;13.402;2023-05-07T06:19:58;9.70;99.90
782;DHT22;374;52.568;13.402;2023-05-07T06:22:24;9.30;99.90
782;DHT22;374;52.568;13.402;2023-05-07T06:24:50;10.70;99.90
782;DHT22;374;52.568;13.402;2023-05-07T06:27:15;9.70;99.90
782;DHT22;374;52.568;13.402;2023-05-07T06:29:41;9.70;99.90
782;DHT22;374;52.568;13.402;2023-05-07T06:32:11;9.70;99.90
782;DHT22;374;52.568;13.402;2023-05-07T06:34:38;9.80;99.90
782;DHT22;374;52.568;13.402;2023-05-07T06:37:03;9.90;99.90
782;DHT22;374;52.568;13.402;2023-05-07T06:39:29;10.00;99.90
782;DHT22;374;52.568;13.402;2023-05-07T06:41:55;10.00;99.90
782;DHT22;374;52.568;13.402;2023-05-07T06:44:20;9.80;99.90
782;DHT22;374;52.568;13.402;2023-05-07T06:49:13;9.90;99.90
782;DHT22;374;52.568;13.402;2023-05-07T06:51:41;9.80;99.90
782;DHT22;374;52.568;13.402;2023-05-07T06:54:06;9.90;99.90
782;DHT22;374;52.568;13.402;2023-05-07T06:56:33;9.90;99.90
782;DHT22;374;52.568;13.402;2023-05-07T06:59:00;10.00;99.90
782;DHT22;374;52.568;13.402;2023-05-07T07:01:26;9.90;99.90
782;DHT22;374;52.568;13.402;2023-05-07T07:03:51;9.90;99.90
782;DHT22;374;52.568;13.402;2023-05-07T07:06:17;10.10;99.90
782;DHT22;374;52.568;13.402;2023-05-07T07:08:42;10.20;99.90
782;DHT22;374;52.568;13.402;2023-05-07T07:11:09;10.40;99.90
782;DHT22;374;52.568;13.402;2023-05-07T07:13:35;10.50;99.90
782;DHT22;374;52.568;13.402;2023-05-07T07:18:27;11.00;99.90
782;DHT22;374;52.568;13.402;2023-05-07T07:20:52;11.00;99.90
782;DHT22;374;52.568;13.402;2023-05-07T07:23:18;11.30;99.90
782;DHT22;374;52.568;13.402;2023-05-07T07:25:43;11.60;99.90
782;DHT22;374;52.568;13.402;2023-05-07T07:28:09;11.60;99.90
782;DHT22;374;52.568;13.402;2023-05-07T07:30:36;12.50;99.90
782;DHT22;374;52.568;13.402;2023-05-07T07:33:01;11.80;99.90
782;DHT22;374;52.568;13.402;2023-05-07T07:35:29;11.90;99.90
782;DHT22;374;52.568;13.402;2023-05-07T07:37:55;11.90;99.90
782;DHT22;374;52.568;13.402;2023-05-07T07:40:20;11.70;99.90
782;DHT22;374;52.568;13.402;2023-05-07T07:45:12;12.10;99.90
782;DHT22;374;52.568;13.402;2023-05-07T07:47:39;12.40;99.90
782;DHT22;374;52.568;13.402;2023-05-07T07:50:05;12.80;99.90
782;DHT22;374;52.568;13.402;2023-05-07T07:52:31;13.10;99.90
782;DHT22;374;52.568;13.402;2023-05-07T07:54:56;13.10;99.90
782;DHT22;374;52.568;13.402;2023-05-07T07:57:22;13.20;99.90
782;DHT22;374;52.568;13.402;2023-05-07T07:59:47;13.10;99.90
782;DHT22;374;52.568;13.402;2023-05-07T08:02:13;13.10;99.90
782;DHT22;374;52.568;13.402;2023-05-07T08:04:38;13.30;99.90
782;DHT22;374;52.568;13.402;2023-05-07T08:07:04;13.20;99.90
782;DHT22;374;52.568;13.402;2023-05-07T08:09:29;13.30;99.90
782;DHT22;374;52.568;13.402;2023-05-07T08:11:54;13.50;99.90
782;DHT22;374;52.568;13.402;2023-05-07T08:14:20;13.70;99.90
782;DHT22;374;52.568;13.402;2023-05-07T08:16:46;13.90;99.90
782;DHT22;374;52.568;13.402;2023-05-07T08:19:11;13.90;99.90
782;DHT22;374;52.568;13.402;2023-05-07T08:21:40;13.80;99.90
782;DHT22;374;52.568;13.402;2023-05-07T08:24:06;13.80;99.90
782;DHT22;374;52.568;13.402;2023-05-07T08:26:31;13.20;99.90
782;DHT22;374;52.568;13.402;2023-05-07T08:28:57;13.90;99.90
782;DHT22;374;52.568;13.402;2023-05-07T08:31:22;15.10;99.90
782;DHT22;374;52.568;13.402;2023-05-07T08:36:14;14.50;99.90
782;DHT22;374;52.568;13.402;2023-05-07T08:38:39;14.30;99.90
782;DHT22;374;52.568;13.402;2023-05-07T08:41:15;14.10;99.90
782;DHT22;374;52.568;13.402;2023-05-07T08:43:41;13.70;99.90
782;DHT22;374;52.568;13.402;2023-05-07T08:46:09;13.30;99.90
782;DHT22;374;52.568;13.402;2023-05-07T08:48:36;15.00;99.90
782;DHT22;374;52.568;13.402;2023-05-07T08:51:02;14.40;99.90
782;DHT22;374;52.568;13.402;2023-05-07T08:53:28;15.20;99.90
782;DHT22;374;52.568;13.402;2023-05-07T08:55:53;14.80;99.90
782;DHT22;374;52.568;13.402;2023-05-07T08:58:19;14.60;99.90
782;DHT22;374;52.568;13.402;2023-05-07T09:00:44;14.40;99.90
782;DHT22;374;52.568;13.402;2023-05-07T09:03:11;14.40;99.90
782;DHT22;374;52.568;13.402;2023-05-07T09:05:39;14.50;99.90
782;DHT22;374;52.568;13.402;2023-05-07T09:08:07;14.80;99.90
782;DHT22;374;52.568;13.402;2023-05-07T09:10:33;14.70;99.90
782;DHT22;374;52.568;13.402;2023-05-07T09:12:58;14.50;99.90
782;DHT22;374;52.568;13.402;2023-05-07T09:15:24;14.50;99.90
782;DHT22;374;52.568;13.402;2023-05-07T09:17:50;14.20;99.90
782;DHT22;374;52.568;13.402;2023-05-07T09:20:16;14.20;99.90
782;DHT22;374;52.568;13.402;2023-05-07T09:22:42;14.40;99.90
782;DHT22;374;52.568;13.402;2023-05-07T09:25:08;14.60;99.90
782;DHT22;374;52.568;13.402;2023-05-07T09:27:34;14.50;99.90
782;DHT22;374;52.568;13.402;2023-05-07T09:30:03;14.30;99.90
782;DHT22;374;52.568;13.402;2023-05-07T09:32:29;14.20;99.90
782;DHT22;374;52.568;13.402;2023-05-07T09:34:56;14.70;99.90
782;DHT22;374;52.568;13.402;2023-05-07T09:37:22;15.20;99.90
782;DHT22;374;52.568;13.402;2023-05-07T09:39:49;15.80;99.50
782;DHT22;374;52.568;13.402;2023-05-07T09:42:15;16.40;99.60
782;DHT22;374;52.568;13.402;2023-05-07T09:44:41;16.60;97.30
782;DHT22;374;52.568;13.402;2023-05-07T09:47:08;16.40;97.70
782;DHT22;374;52.568;13.402;2023-05-07T09:49:35;16.70;96.50
782;DHT22;374;52.568;13.402;2023-05-07T09:52:03;16.80;96.30
782;DHT22;374;52.568;13.402;2023-05-07T09:54:29;16.30;95.20
782;DHT22;374;52.568;13.402;2023-05-07T09:56:55;16.10;97.00
782;DHT22;374;52.568;13.402;2023-05-07T09:59:21;16.40;97.50
782;DHT22;374;52.568;13.402;2023-05-07T10:01:48;16.50;97.00
782;DHT22;374;52.568;13.402;2023-05-07T10:04:14;16.50;97.50
782;DHT22;374;52.568;13.402;2023-05-07T10:06:40;16.50;96.10
782;DHT22;374;52.568;13.402;2023-05-07T10:09:06;16.50;96.50
782;DHT22;374;52.568;13.402;2023-05-07T10:11:33;16.00;97.20
782;DHT22;374;52.568;13.402;2023-05-07T10:14:04;16.00;98.00
782;DHT22;374;52.568;13.402;2023-05-07T10:16:36;15.70;97.90
782;DHT22;374;52.568;13.402;2023-05-07T10:19:05;15.40;96.30
782;DHT22;374;52.568;13.402;2023-05-07T10:21:38;14.90;97.00
782;DHT22;374;52.568;13.402;2023-05-07T10:24:20;14.90;98.30
782;DHT22;374;52.568;13.402;2023-05-07T10:26:49;14.90;98.90
782;DHT22;374;52.568;13.402;2023-05-07T10:29:25;15.00;99.00
782;DHT22;374;52.568;13.402;2023-05-07T10:34:43;15.00;98.80
782;DHT22;374;52.568;13.402;2023-05-07T10:37:09;14.90;99.20
782;DHT22;374;52.568;13.402;2023-05-07T10:39:35;14.80;99.20
782;DHT22;374;52.568;13.402;2023-05-07T10:42:09;14.80;99.30
782;DHT22;374;52.568;13.402;2023-05-07T10:44:35;14.80;98.80
782;DHT22;374;52.568;13.402;2023-05-07T10:47:07;14.80;99.10
782;DHT22;374;52.568;13.402;2023-05-07T10:49:35;14.80;99.00
782;DHT22;374;52.568;13.402;2023-05-07T10:52:16;14.80;98.30
782;DHT22;374;52.568;13.402;2023-05-07T10:54:43;14.80;99.90
782;DHT22;374;52.568;13.402;2023-05-07T10:57:34;14.70;98.50
782;DHT22;374;52.568;13.402;2023-05-07T11:00:40;14.80;97.90
782;DHT22;374;52.568;13.402;2023-05-07T11:05:30;14.60;98.30
782;DHT22;374;52.568;13.402;2023-05-07T11:08:03;14.50;98.40
782;DHT22;374;52.568;13.402;2023-05-07T11:10:49;14.50;98.60
782;DHT22;374;52.568;13.402;2023-05-07T11:13:15;14.50;97.80
782;DHT22;374;52.568;13.402;2023-05-07T11:15:46;14.50;97.00
782;DHT22;374;52.568;13.402;2023-05-07T11:18:16;14.40;96.90
782;DHT22;374;52.568;13.402;2023-05-07T11:20:46;14.40;98.00
782;DHT22;374;52.568;13.402;2023-05-07T11:26:08;14.20;97.50
782;DHT22;374;52.568;13.402;2023-05-07T11:28:39;14.20;97.50
782;DHT22;374;52.568;13.402;2023-05-07T11:31:05;14.20;98.40
782;DHT22;374;52.568;13.402;2023-05-07T11:33:31;14.30;97.80
782;DHT22;374;52.568;13.402;2023-05-07T11:35:57;14.40;98.10
782;DHT22;374;52.568;13.402;2023-05-07T11:38:23;14.40;98.20
782;DHT22;374;52.568;13.402;2023-05-07T11:40:54;14.40;98.30
782;DHT22;374;52.568;13.402;2023-05-07T11:43:20;14.20;97.40
782;DHT22;374;52.568;13.402;2023-05-07T11:45:46;14.40;97.70
782;DHT22;374;52.568;13.402;2023-05-07T11:48:13;14.40;97.50
782;DHT22;374;52.568;13.402;2023-05-07T11:51:06;14.20;98.50
782;DHT22;374;52.568;13.402;2023-05-07T11:53:40;14.50;98.10
782;DHT22;374;52.568;13.402;2023-05-07T11:56:09;14.50;98.80
782;DHT22;374;52.568;13.402;2023-05-07T11:58:36;14.60;98.50
782;DHT22;374;52.568;13.402;2023-05-07T12:01:02;14.70;97.80
782;DHT22;374;52.568;13.402;2023-05-07T12:03:27;14.60;97.40
782;DHT22;374;52.568;13.402;2023-05-07T12:05:53;14.60;96.80
782;DHT22;374;52.568;13.402;2023-05-07T12:08:20;14.70;96.50
782;DHT22;374;52.568;13.402;2023-05-07T12:10:47;14.40;97.20
782;DHT22;374;52.568;13.402;2023-05-07T12:13:24;14.60;97.40
782;DHT22;374;52.568;13.402;2023-05-07T12:15:51;14.70;97.90
782;DHT22;374;52.568;13.402;2023-05-07T12:18:17;14.70;97.90
782;DHT22;374;52.568;13.402;2023-05-07T12:20:43;14.70;98.10
782;DHT22;374;52.568;13.402;2023-05-07T12:23:08;14.40;97.30
782;DHT22;374;52.568;13.402;2023-05-07T12:25:35;14.50;97.70
782;DHT22;374;52.568;13.402;2023-05-07T12:28:05;14.50;96.90
782;DHT22;374;52.568;13.402;2023-05-07T12:30:38;14.60;96.30
782;DHT22;374;52.568;13.402;2023-05-07T12:33:04;14.50;97.40
782;DHT22;374;52.568;13.402;2023-05-07T12:35:31;14.60;97.40
782;DHT22;374;52.568;13.402;2023-05-07T12:37:59;14.50;96.30
782;DHT22;374;52.568;13.402;2023-05-07T12:43:15;14.60;96.40
782;DHT22;374;52.568;13.402;2023-05-07T12:45:42;14.50;96.60
782;DHT22;374;52.568;13.402;2023-05-07T12:48:10;14.70;97.50
782;DHT22;374;52.568;13.402;2023-05-07T12:50:35;14.60;96.40
782;DHT22;374;52.568;13.402;2023-05-07T12:53:03;14.70;95.80
782;DHT22;374;52.568;13.402;2023-05-07T12:55:31;14.70;96.50
782;DHT22;374;52.568;13.402;2023-05-07T12:57:57;14.70;96.10
782;DHT22;374;52.568;13.402;2023-05-07T13:00:36;14.60;96.70
782;DHT22;374;52.568;13.402;2023-05-07T13:03:02;14.60;95.90
782;DHT22;374;52.568;13.402;2023-05-07T13:05:31;14.70;96.70
782;DHT22;374;52.568;13.402;2023-05-07T13:07:58;14.70;95.60
782;DHT22;374;52.568;13.402;2023-05-07T13:10:26;14.80;94.70
782;DHT22;374;52.568;13.402;2023-05-07T13:12:52;14.70;95.00
782;DHT22;374;52.568;13.402;2023-05-07T13:15:18;14.80;95.60
782;DHT22;374;52.568;13.402;2023-05-07T13:17:44;14.80;95.80
782;DHT22;374;52.568;13.402;2023-05-07T13:20:10;14.80;95.50
782;DHT22;374;52.568;13.402;2023-05-07T13:22:36;14.80;95.80
782;DHT22;374;52.568;13.402;2023-05-07T13:25:05;14.70;95.40
782;DHT22;374;52.568;13.402;2023-05-07T13:27:31;14.80;96.10
782;DHT22;374;52.568;13.402;2023-05-07T13:29:56;14.70;95.60
782;DHT22;374;52.568;13.402;2023-05-07T13:32:22;14.50;95.80
782;DHT22;374;52.568;13.402;2023-05-07T13:37:14;14.80;94.00
782;DHT22;374;52.568;13.402;2023-05-07T13:39:39;14.60;94.60
782;DHT22;374;52.568;13.402;2023-05-07T13:42:06;14.70;94.90
782;DHT22;374;52.568;13.402;2023-05-07T13:44:31;15.10;95.60
782;DHT22;374;52.568;13.402;2023-05-07T13:46:57;15.00;96.60
782;DHT22;374;52.568;13.402;2023-05-07T13:49:25;15.00;95.40
782;DHT22;374;52.568;13.402;2023-05-07T13:51:50;14.80;95.80
782;DHT22;374;52.568;13.402;2023-05-07T13:54:16;14.90;94.00
782;DHT22;374;52.568;13.402;2023-05-07T13:56:41;14.90;94.90
782;DHT22;374;52.568;13.402;2023-05-07T13:59:07;15.00;94.30
782;DHT22;374;52.568;13.402;2023-05-07T14:01:32;15.00;94.20
782;DHT22;374;52.568;13.402;2023-05-07T14:03:58;15.00;94.50
782;DHT22;374;52.568;13.402;2023-05-07T14:06:24;15.00;94.60
782;DHT22;374;52.568;13.402;2023-05-07T14:08:50;15.10;95.10
782;DHT22;374;52.568;13.402;2023-05-07T14:11:15;15.10;94.30
782;DHT22;374;52.568;13.402;2023-05-07T14:13:41;15.10;94.40
782;DHT22;374;52.568;13.402;2023-05-07T14:16:06;15.00;94.20
782;DHT22;374;52.568;13.402;2023-05-07T14:18:32;15.00;94.40
782;DHT22;374;52.568;13.402;2023-05-07T14:20:59;15.10;94.90
782;DHT22;374;52.568;13.402;2023-05-07T14:23:25;15.20;94.20
782;DHT22;374;52.568;13.402;2023-05-07T14:25:52;15.10;93.90
782;DHT22;374;52.568;13.402;2023-05-07T14:28:18;15.10;93.70
782;DHT22;374;52.568;13.402;2023-05-07T14:30:44;15.20;94.10
782;DHT22;374;52.568;13.402;2023-05-07T14:33:09;15.20;94.40
782;DHT22;374;52.568;13.402;2023-05-07T14:35:35;15.30;93.60
782;DHT22;374;52.568;13.402;2023-05-07T14:38:00;15.20;94.10
782;DHT22;374;52.568;13.402;2023-05-07T14:40:26;15.10;94.00
782;DHT22;374;52.568;13.402;2023-05-07T14:42:52;15.10;94.10
782;DHT22;374;52.568;13.402;2023-05-07T14:45:17;15.90;96.10
782;DHT22;374;52.568;13.402;2023-05-07T14:47:45;15.10;95.10
782;DHT22;374;52.568;13.402;2023-05-07T14:50:13;15.10;94.90
782;DHT22;374;52.568;13.402;2023-05-07T14:52:39;15.20;94.90
782;DHT22;374;52.568;13.402;2023-05-07T14:55:04;15.10;94.40
782;DHT22;374;52.568;13.402;2023-05-07T14:57:30;15.10;94.70
782;DHT22;374;52.568;13.402;2023-05-07T15:00:00;15.00;94.50
782;DHT22;374;52.568;13.402;2023-05-07T15:02:26;15.00;94.20
782;DHT22;374;52.568;13.402;2023-05-07T15:04:51;14.90;94.70
782;DHT22;374;52.568;13.402;2023-05-07T15:09:43;14.90;94.20
782;DHT22;374;52.568;13.402;2023-05-07T15:12:09;15.20;95.20
782;DHT22;374;52.568;13.402;2023-05-07T15:14:35;15.00;95.50
782;DHT22;374;52.568;13.402;2023-05-07T15:17:00;14.90;95.60
782;DHT22;374;52.568;13.402;2023-05-07T15:19:26;14.90;94.60
782;DHT22;374;52.568;13.402;2023-05-07T15:21:57;15.00;95.40
782;DHT22;374;52.568;13.402;2023-05-07T15:24:23;15.00;95.00
782;DHT22;374;52.568;13.402;2023-05-07T15:26:51;15.00;96.00
782;DHT22;374;52.568;13.402;2023-05-07T15:29:17;15.00;94.30
782;DHT22;374;52.568;13.402;2023-05-07T15:31:42;15.00;94.50
782;DHT22;374;52.568;13.402;2023-05-07T15:34:10;15.10;93.80
782;DHT22;374;52.568;13.402;2023-05-07T15:36:35;15.00;94.50
782;DHT22;374;52.568;13.402;2023-05-07T15:39:01;15.10;94.90
782;DHT22;374;52.568;13.402;2023-05-07T15:41:28;15.00;94.30
782;DHT22;374;52.568;13.402;2023-05-07T15:43:54;15.00;94.30
782;DHT22;374;52.568;13.402;2023-05-07T15:46:21;14.90;95.30
782;DHT22;374;52.568;13.402;2023-05-07T15:48:48;14.90;94.20
782;DHT22;374;52.568;13.402;2023-05-07T15:51:14;14.90;94.30
782;DHT22;374;52.568;13.402;2023-05-07T15:53:39;14.80;94.80
782;DHT22;374;52.568;13.402;2023-05-07T15:56:08;14.80;95.20
782;DHT22;374;52.568;13.402;2023-05-07T15:58:34;14.80;95.30
782;DHT22;374;52.568;13.402;2023-05-07T16:01:00;14.80;94.90
782;DHT22;374;52.568;13.402;2023-05-07T16:03:27;14.80;95.20
782;DHT22;374;52.568;13.402;2023-05-07T16:05:54;15.00;94.70
782;DHT22;374;52.568;13.402;2023-05-07T16:08:22;15.00;94.00
782;DHT22;374;52.568;13.402;2023-05-07T16:10:47;15.00;93.90
782;DHT22;374;52.568;13.402;2023-05-07T16:13:13;14.90;94.60
782;DHT22;374;52.568;13.402;2023-05-07T16:15:38;15.00;94.30
782;DHT22;374;52.568;13.402;2023-05-07T16:18:04;15.40;95.10
782;DHT22;374;52.568;13.402;2023-05-07T16:20:30;14.80;95.50
782;DHT22;374;52.568;13.402;2023-05-07T16:23:09;15.10;94.50
782;DHT22;374;52.568;13.402;2023-05-07T16:25:35;15.60;95.00
782;DHT22;374;52.568;13.402;2023-05-07T16:28:01;15.30;94.70
782;DHT22;374;52.568;13.402;2023-05-07T16:30:26;15.00;95.20
782;DHT22;374;52.568;13.402;2023-05-07T16:32:52;15.20;95.50
782;DHT22;374;52.568;13.402;2023-05-07T16:35:17;14.60;94.40
782;DHT22;374;52.568;13.402;2023-05-07T16:37:43;14.60;95.00
782;DHT22;374;52.568;13.402;2023-05-07T16:40:09;14.90;95.00
782;DHT22;374;52.568;13.402;2023-05-07T16:42:35;14.50;96.10
782;DHT22;374;52.568;13.402;2023-05-07T16:45:02;14.40;95.70
782;DHT22;374;52.568;13.402;2023-05-07T16:47:28;14.50;95.30
782;DHT22;374;52.568;13.402;2023-05-07T16:49:54;14.40;95.60
782;DHT22;374;52.568;13.402;2023-05-07T16:52:20;13.90;94.80
782;DHT22;374;52.568;13.402;2023-05-07T16:54:46;14.10;96.20
782;DHT22;374;52.568;13.402;2023-05-07T16:57:11;14.50;95.90
782;DHT22;374;52.568;13.402;2023-05-07T16:59:37;14.50;95.80
782;DHT22;374;52.568;13.402;2023-05-07T17:02:02;14.30;95.40
782;DHT22;374;52.568;13.402;2023-05-07T17:04:28;14.20;95.70
782;DHT22;374;52.568;13.402;2023-05-07T17:06:54;14.30;94.90
782;DHT22;374;52.568;13.402;2023-05-07T17:09:21;14.30;95.40
782;DHT22;374;52.568;13.402;2023-05-07T17:11:47;14.20;95.20
782;DHT22;374;52.568;13.402;2023-05-07T17:14:12;14.20;94.40
782;DHT22;374;52.568;13.402;2023-05-07T17:16:38;14.20;95.10
782;DHT22;374;52.568;13.402;2023-05-07T17:19:03;14.10;94.30
782;DHT22;374;52.568;13.402;2023-05-07T17:21:29;14.00;95.00
782;DHT22;374;52.568;13.402;2023-05-07T17:23:54;14.00;95.10
782;DHT22;374;52.568;13.402;2023-05-07T17:26:20;14.00;95.00
782;DHT22;374;52.568;13.402;2023-05-07T17:28:45;14.00;95.10
782;DHT22;374;52.568;13.402;2023-05-07T17:31:11;13.90;96.50
782;DHT22;374;52.568;13.402;2023-05-07T17:33:36;13.90;96.00
782;DHT22;374;52.568;13.402;2023-05-07T17:36:02;13.90;95.90
782;DHT22;374;52.568;13.402;2023-05-07T17:38:29;13.90;95.10
782;DHT22;374;52.568;13.402;2023-05-07T17:40:54;13.80;95.40
782;DHT22;374;52.568;13.402;2023-05-07T17:43:20;13.80;94.50
782;DHT22;374;52.568;13.402;2023-05-07T17:45:48;13.80;95.50
782;DHT22;374;52.568;13.402;2023-05-07T17:48:13;13.80;95.30
782;DHT22;374;52.568;13.402;2023-05-07T17:50:39;13.80;96.10
782;DHT22;374;52.568;13.402;2023-05-07T17:53:05;13.80;95.30
782;DHT22;374;52.568;13.402;2023-05-07T17:55:30;13.70;95.90
782;DHT22;374;52.568;13.402;2023-05-07T17:57:58;13.70;95.50
782;DHT22;374;52.568;13.402;2023-05-07T18:00:24;13.70;95.90
782;DHT22;374;52.568;13.402;2023-05-07T18:02:53;13.70;95.60
782;DHT22;374;52.568;13.402;2023-05-07T18:05:26;13.60;95.80
782;DHT22;374;52.568;13.402;2023-05-07T18:07:52;13.60;96.40
782;DHT22;374;52.568;13.402;2023-05-07T18:10:18;13.00;96.20
782;DHT22;374;52.568;13.402;2023-05-07T18:12:46;13.60;95.60